Time;durP1;ratioP1;P1;durP2;ratioP2;P2;SDS_P1;SDS_P2;PMS_P1;PMS_P2;Temp;Humidity;BMP_temperature;BMP_pressure;BME280_temperature;BME280_humidity;BME280_pressure;Samples;Min_cycle;Max_cycle;Signal;HPM_P1;HPM_P2
2022/12/21 00:02:12;;;;;;;4.83;4.37;;;;;;;9.51;100.00;100864.25;6093701;28;20330;-68
2022/12/21 00:05:33;;;;;;;4.47;3.90;;;;;;;9.50;100.00;100866.09;6107746;28;20510;-69
2022/12/21 00:08:59;;;;;;;3.83;3.53;;;;;;;9.55;100.00;100871.91;6104783;28;20274;-68
2022/12/21 00:12:19;;;;;;;6.53;4.97;;;;;;;9.55;100.00;100882.69;6088742;28;20240;-68
2022/12/21 00:15:40;;;;;;;4.37;3.97;;;;;;;9.56;100.00;100875.47;6096926;28;20237;-69
2022/12/21 00:19:02;;;;;;;9.03;4.90;;;;;;;9.57;100.00;100880.72;6087389;28;20227;-69
2022/12/21 00:22:22;;;;;;;6.20;5.07;;;;;;;9.58;100.00;100878.88;6096190;28;20238;-68
2022/12/21 00:25:47;;;;;;;5.70;4.50;;;;;;;9.60;100.00;100874.22;6109068;28;21186;-67
2022/12/21 00:29:08;;;;;;;6.10;4.13;;;;;;;9.60;100.00;100879.59;6110019;28;20622;-68
2022/12/21 00:32:29;;;;;;;4.67;4.13;;;;;;;9.51;100.00;100880.41;6076096;28;20239;-69
2022/12/21 00:35:51;;;;;;;6.17;4.20;;;;;;;9.47;100.00;100874.41;6104630;28;20804;-68
2022/12/21 00:39:12;;;;;;;3.50;3.20;;;;;;;9.44;100.00;100872.00;6105171;28;20244;-68
2022/12/21 00:42:34;;;;;;;5.47;4.50;;;;;;;9.52;100.00;100871.34;6086749;28;20232;-67
2022/12/21 00:45:57;;;;;;;4.87;3.73;;;;;;;9.44;100.00;100871.13;6092502;28;20256;-69
2022/12/21 00:49:18;;;;;;;4.60;3.43;;;;;;;9.46;100.00;100875.41;6086508;28;20228;-68
2022/12/21 00:52:39;;;;;;;4.47;3.40;;;;;;;9.52;100.00;100882.94;6100631;28;20232;-68
2022/12/21 00:56:01;;;;;;;4.57;3.50;;;;;;;9.59;100.00;100894.06;6104896;28;20236;-69
2022/12/21 00:59:24;;;;;;;4.93;4.43;;;;;;;9.63;100.00;100899.06;6085196;28;20235;-69
2022/12/21 01:02:45;;;;;;;5.13;4.63;;;;;;;9.60;100.00;100896.63;6097644;28;20303;-68
2022/12/21 01:06:06;;;;;;;3.80;3.43;;;;;;;9.60;100.00;100893.06;6103128;28;20669;-68
2022/12/21 01:09:27;;;;;;;4.23;3.50;;;;;;;9.65;100.00;100898.91;6102130;28;20238;-69
2022/12/21 01:12:48;;;;;;;4.50;3.53;;;;;;;9.70;100.00;100898.53;6087132;28;20235;-69
2022/12/21 01:16:16;;;;;;;5.50;5.00;;;;;;;9.61;100.00;100903.72;6092656;28;20236;-68
2022/12/21 01:19:37;;;;;;;3.87;3.57;;;;;;;9.58;100.00;100906.66;6072520;28;20235;-69
2022/12/21 01:22:58;;;;;;;5.50;4.73;;;;;;;9.51;100.00;100921.59;6092120;28;20231;-68
2022/12/21 01:26:19;;;;;;;5.20;3.97;;;;;;;9.42;100.00;100917.00;6113640;28;20231;-69
2022/12/21 01:29:40;;;;;;;5.13;4.70;;;;;;;9.40;100.00;100907.34;6092608;28;20263;-69
2022/12/21 01:33:02;;;;;;;4.43;3.40;;;;;;;9.44;100.00;100904.28;6087638;28;20237;-67
2022/12/21 01:36:23;;;;;;;6.07;4.40;;;;;;;9.37;100.00;100912.97;6099386;28;20262;-68
2022/12/21 01:39:44;;;;;;;4.77;4.00;;;;;;;9.49;100.00;100915.50;6103498;28;20545;-68
2022/12/21 01:43:16;;;;;;;4.43;3.33;;;;;;;9.45;100.00;100913.22;6088340;28;20255;-69
2022/12/21 01:46:42;;;;;;;4.80;3.43;;;;;;;9.51;100.00;100918.91;6096506;28;20609;-69
2022/12/21 01:50:22;;;;;;;3.70;3.20;;;;;;;9.63;100.00;100906.28;6094463;28;20817;-69
2022/12/21 01:53:47;;;;;;;4.23;3.27;;;;;;;9.67;100.00;100907.72;6095385;28;20235;-69
2022/12/21 01:57:11;;;;;;;6.17;4.30;;;;;;;9.65;100.00;100902.47;6105580;28;20252;-68
2022/12/21 02:00:32;;;;;;;3.13;2.83;;;;;;;9.61;100.00;100901.03;6094703;28;20240;-68
2022/12/21 02:03:54;;;;;;;4.27;3.23;;;;;;;9.50;100.00;100902.91;6084813;28;20232;-68
2022/12/21 02:07:17;;;;;;;3.27;2.93;;;;;;;9.58;100.00;100895.88;6097576;28;20257;-70
2022/12/21 02:10:38;;;;;;;2.97;2.63;;;;;;;9.51;100.00;100893.84;6082615;28;20262;-68
2022/12/21 02:13:59;;;;;;;3.43;2.77;;;;;;;9.51;100.00;100892.00;6094598;28;20570;-69
2022/12/21 02:17:32;;;;;;;4.50;2.97;;;;;;;9.69;100.00;100897.69;6100958;28;20354;-68
2022/12/21 02:21:21;;;;;;;3.30;3.00;;;;;;;9.63;100.00;100893.69;6099454;28;20914;-68
2022/12/21 02:25:10;;;;;;;5.37;4.07;;;;;;;9.51;100.00;100899.25;6110767;28;20983;-68
2022/12/21 02:29:12;;;;;;;5.30;4.30;;;;;;;9.38;100.00;100902.09;6093445;28;20891;-68
2022/12/21 02:32:50;;;;;;;3.73;3.40;;;;;;;9.33;100.00;100898.94;6103159;28;20229;-67
2022/12/21 02:36:23;;;;;;;6.97;3.33;;;;;;;9.35;100.00;100904.16;6106735;28;20239;-68
2022/12/21 02:39:54;;;;;;;5.07;3.53;;;;;;;9.35;100.00;100912.25;6098099;28;20235;-68
2022/12/21 02:47:15;;;;;;;5.00;3.43;;;;;;;9.35;100.00;100907.72;6073705;28;20239;-68
2022/12/21 02:50:42;;;;;;;5.10;3.30;;;;;;;9.48;100.00;100912.94;6103223;28;20228;-69
2022/12/21 02:54:04;;;;;;;3.30;3.00;;;;;;;9.51;100.00;100912.69;6092046;28;20246;-67
2022/12/21 02:57:31;;;;;;;3.20;2.83;;;;;;;9.40;100.00;100901.97;6098891;28;20240;-69
2022/12/21 03:01:08;;;;;;;3.00;2.70;;;;;;;9.29;100.00;100908.25;6088399;28;20236;-68
2022/12/21 03:04:43;;;;;;;3.83;3.47;;;;;;;9.38;100.00;100912.00;6099379;28;20254;-68
2022/12/21 03:08:17;;;;;;;3.53;2.70;;;;;;;9.46;100.00;100914.91;6092316;28;20247;-69
2022/12/21 03:11:53;;;;;;;3.13;2.10;;;;;;;9.36;100.00;100906.75;6103138;28;20244;-69
2022/12/21 03:15:24;;;;;;;3.97;2.50;;;;;;;9.29;100.00;100910.06;6089307;28;20287;-68
2022/12/21 03:18:58;;;;;;;3.80;3.50;;;;;;;9.17;100.00;100908.41;6094153;28;20231;-69
2022/12/21 03:22:29;;;;;;;4.80;3.77;;;;;;;9.13;100.00;100910.50;6098168;28;20231;-68
2022/12/21 03:25:55;;;;;;;4.87;4.37;;;;;;;9.21;100.00;100916.09;6089383;29;21649;-68
2022/12/21 03:29:20;;;;;;;7.33;4.17;;;;;;;9.16;100.00;100910.22;6088853;28;20236;-68
2022/12/21 03:32:46;;;;;;;4.00;3.67;;;;;;;9.15;100.00;100907.66;6097294;28;20804;-69
2022/12/21 03:36:14;;;;;;;4.60;3.30;;;;;;;9.08;100.00;100906.44;6102843;28;20618;-69
2022/12/21 03:39:39;;;;;;;4.30;3.90;;;;;;;9.02;100.00;100910.50;6097184;28;20362;-68
2022/12/21 03:43:05;;;;;;;4.83;3.73;;;;;;;9.15;100.00;100908.53;6092140;28;20232;-68
2022/12/21 03:46:31;;;;;;;4.80;4.30;;;;;;;9.08;100.00;100910.00;6094969;28;20255;-68
2022/12/21 03:49:55;;;;;;;4.40;4.00;;;;;;;9.08;100.00;100904.63;6105303;28;20231;-69
2022/12/21 03:53:26;;;;;;;5.80;4.23;;;;;;;9.03;100.00;100909.53;6092718;28;20311;-68
2022/12/21 03:56:49;;;;;;;5.83;4.03;;;;;;;9.13;100.00;100906.94;6107113;28;20598;-67
2022/12/21 04:00:12;;;;;;;5.70;3.40;;;;;;;8.98;100.00;100917.13;6104057;28;20331;-67
2022/12/21 04:03:38;;;;;;;4.57;3.77;;;;;;;8.93;100.00;100910.41;6095263;28;20235;-69
2022/12/21 04:07:03;;;;;;;5.00;3.90;;;;;;;9.06;100.00;100903.03;6106666;28;20239;-68
2022/12/21 04:10:26;;;;;;;4.60;4.20;;;;;;;8.99;100.00;100901.84;6086696;28;20293;-68
2022/12/21 04:13:47;;;;;;;4.93;3.83;;;;;;;8.91;100.00;100902.47;6098634;28;20314;-69
2022/12/21 04:17:09;;;;;;;5.43;4.53;;;;;;;8.97;100.00;100904.63;6099416;28;20509;-68
2022/12/21 04:20:30;;;;;;;6.80;4.77;;;;;;;9.07;100.00;100904.75;6102262;28;20248;-68
2022/12/21 04:31:08;;;;;;;6.40;4.90;;;;;;;9.02;100.00;100906.97;6099418;28;20577;-68
2022/12/21 04:34:30;;;;;;;7.70;4.17;;;;;;;8.85;100.00;100906.50;6090953;28;20248;-68
2022/12/21 04:37:51;;;;;;;9.77;4.53;;;;;;;8.90;100.00;100910.66;6091192;28;20231;-68
2022/12/21 04:41:13;;;;;;;5.87;4.03;;;;;;;8.94;100.00;100893.28;6117005;28;20240;-68
2022/12/21 04:44:34;;;;;;;5.13;4.00;;;;;;;8.95;100.00;100900.41;6103484;28;21833;-68
2022/12/21 04:47:55;;;;;;;6.00;5.40;;;;;;;8.98;100.00;100905.50;6087324;28;20284;-69
2022/12/21 04:51:20;;;;;;;6.20;4.43;;;;;;;8.97;100.00;100906.50;6094714;28;20232;-68
2022/12/21 04:54:40;;;;;;;8.83;4.50;;;;;;;9.00;100.00;100907.09;6101754;28;20307;-67
2022/12/21 04:58:01;;;;;;;6.53;4.33;;;;;;;9.01;100.00;100913.34;6093892;28;20228;-68
2022/12/21 05:01:23;;;;;;;6.20;4.30;;;;;;;8.84;100.00;100923.59;6098203;28;20240;-68
2022/12/21 05:04:43;;;;;;;7.40;4.87;;;;;;;8.83;100.00;100921.91;6109607;28;20235;-68
2022/12/21 05:08:06;;;;;;;6.60;4.63;;;;;;;8.57;100.00;100922.28;6090323;28;20243;-69
2022/12/21 05:11:27;;;;;;;6.43;5.53;;;;;;;8.56;100.00;100923.25;6111190;28;20241;-68
2022/12/21 05:14:48;;;;;;;6.90;5.30;;;;;;;8.50;100.00;100916.56;6101151;28;20836;-69
2022/12/21 05:18:09;;;;;;;6.20;5.43;;;;;;;8.53;100.00;100910.91;6088674;28;20563;-68
2022/12/21 05:21:30;;;;;;;7.63;5.23;;;;;;;8.53;100.00;100921.66;6094616;28;20227;-69
2022/12/21 05:24:52;;;;;;;7.27;4.80;;;;;;;8.60;100.00;100922.03;6094550;28;20236;-69
2022/12/21 05:28:13;;;;;;;13.53;6.27;;;;;;;8.55;100.00;100925.09;6092218;28;20231;-70
2022/12/21 05:31:34;;;;;;;5.20;4.27;;;;;;;8.48;100.00;100923.00;6105977;28;20231;-69
2022/12/21 05:34:55;;;;;;;9.60;6.30;;;;;;;8.51;100.00;100914.72;6108326;28;22076;-67
2022/12/21 05:38:16;;;;;;;10.30;5.63;;;;;;;8.47;100.00;100921.31;6093161;28;20286;-69
2022/12/21 05:41:38;;;;;;;6.17;5.53;;;;;;;8.41;100.00;100913.72;6114015;28;20535;-70
2022/12/21 05:44:59;;;;;;;7.87;6.37;;;;;;;8.56;100.00;100918.75;6104622;28;20253;-69
2022/12/21 05:48:20;;;;;;;9.57;5.60;;;;;;;8.65;100.00;100914.47;6097444;28;20248;-68
2022/12/21 05:51:40;;;;;;;9.07;5.23;;;;;;;8.60;100.00;100909.47;6104182;28;20260;-70
2022/12/21 05:55:01;;;;;;;7.90;5.83;;;;;;;8.76;100.00;100899.19;6089716;28;20231;-70
2022/12/21 05:58:24;;;;;;;9.03;5.37;;;;;;;8.74;100.00;100903.81;6098186;28;20255;-68
2022/12/21 06:01:45;;;;;;;6.53;5.33;;;;;;;8.51;100.00;100895.94;6094256;28;20243;-69
2022/12/21 06:05:06;;;;;;;8.60;7.00;;;;;;;8.50;100.00;100904.94;6099235;28;20604;-69
2022/12/21 06:08:27;;;;;;;5.80;5.13;;;;;;;8.59;100.00;100906.91;6090634;28;20236;-68
2022/12/21 06:11:49;;;;;;;8.53;5.80;;;;;;;8.62;100.00;100912.88;6099019;28;20243;-68
2022/12/21 06:15:11;;;;;;;8.37;5.87;;;;;;;8.70;100.00;100907.75;6107497;28;20240;-69
2022/12/21 06:18:32;;;;;;;9.20;5.40;;;;;;;8.82;100.00;100917.50;6095481;28;20330;-69
2022/12/21 06:21:53;;;;;;;7.53;5.77;;;;;;;8.86;100.00;100908.19;6103822;28;20987;-69
2022/12/21 06:25:14;;;;;;;7.63;5.17;;;;;;;9.03;100.00;100900.63;6105699;28;20256;-69
2022/12/21 06:28:35;;;;;;;7.70;5.30;;;;;;;9.09;100.00;100910.88;6096027;28;20565;-69
2022/12/21 06:31:58;;;;;;;10.23;7.07;;;;;;;9.17;100.00;100903.88;6104712;28;20368;-68
2022/12/21 06:35:18;;;;;;;6.73;5.17;;;;;;;9.19;99.97;100914.50;6112168;28;20227;-69
2022/12/21 06:38:40;;;;;;;6.03;4.73;;;;;;;9.06;99.71;100903.91;6096066;28;20247;-69
2022/12/21 06:42:01;;;;;;;7.40;5.73;;;;;;;9.05;99.63;100912.97;6110230;28;20498;-69
2022/12/21 06:45:22;;;;;;;9.63;7.67;;;;;;;8.86;99.71;100913.56;6084271;28;20228;-69
2022/12/21 06:48:44;;;;;;;11.33;6.70;;;;;;;8.67;100.00;100924.13;6093592;28;20605;-69
2022/12/21 06:52:05;;;;;;;11.13;8.23;;;;;;;8.56;100.00;100929.50;6105244;28;20255;-69
2022/12/21 06:55:26;;;;;;;10.87;9.10;;;;;;;8.17;100.00;100946.03;6092301;28;20887;-67
2022/12/21 06:58:47;;;;;;;10.43;6.97;;;;;;;8.02;100.00;100941.84;6079446;28;20235;-67
2022/12/21 07:02:10;;;;;;;11.40;8.63;;;;;;;8.00;100.00;100936.59;6096741;28;20232;-67
2022/12/21 07:05:33;;;;;;;11.27;7.60;;;;;;;8.08;100.00;100939.53;6101350;28;20235;-68
2022/12/21 07:08:55;;;;;;;15.00;8.40;;;;;;;8.20;100.00;100951.16;6095234;28;20239;-67
2022/12/21 07:12:16;;;;;;;10.67;7.20;;;;;;;8.26;100.00;100953.38;6101779;28;20809;-67
2022/12/21 07:15:37;;;;;;;12.63;7.23;;;;;;;8.26;100.00;100949.88;6073212;28;20248;-67
2022/12/21 07:18:58;;;;;;;11.17;8.70;;;;;;;8.13;100.00;100955.31;6097765;28;20231;-68
2022/12/21 07:22:20;;;;;;;12.10;7.83;;;;;;;8.06;100.00;100952.22;6078104;28;20247;-69
2022/12/21 07:25:42;;;;;;;7.87;6.70;;;;;;;8.08;100.00;100962.84;6080990;28;20228;-68
2022/12/21 07:29:02;;;;;;;8.50;6.50;;;;;;;8.11;100.00;100965.31;6094114;28;20231;-69
2022/12/21 07:32:23;;;;;;;11.53;6.53;;;;;;;8.16;100.00;100962.25;6091851;28;20327;-68
2022/12/21 07:35:44;;;;;;;9.20;5.57;;;;;;;8.31;100.00;100953.91;6097623;28;21418;-68
2022/12/21 07:39:06;;;;;;;10.87;7.13;;;;;;;8.36;100.00;100953.53;6094579;28;20263;-67
2022/12/21 07:42:27;;;;;;;10.73;7.07;;;;;;;8.28;100.00;100956.81;6093945;28;20271;-68
2022/12/21 07:46:01;;;;;;;9.50;6.37;;;;;;;8.13;100.00;100952.63;6088769;28;20512;-67
2022/12/21 07:49:22;;;;;;;13.20;10.07;;;;;;;8.07;100.00;100947.72;6102719;28;20236;-68
2022/12/21 07:52:43;;;;;;;13.47;9.13;;;;;;;8.17;100.00;100951.41;6098441;28;20239;-67
2022/12/21 07:56:14;;;;;;;17.33;7.63;;;;;;;8.16;100.00;100960.41;6091053;28;20236;-67
2022/12/21 07:59:35;;;;;;;8.77;5.73;;;;;;;8.01;100.00;100957.09;6087047;28;20696;-67
2022/12/21 08:02:55;;;;;;;8.50;6.70;;;;;;;8.03;100.00;100963.19;6089478;28;20232;-69
2022/12/21 08:06:17;;;;;;;14.03;7.80;;;;;;;8.05;100.00;100976.53;6107625;28;20323;-67
2022/12/21 08:09:38;;;;;;;7.37;6.67;;;;;;;7.99;100.00;100988.56;6092856;28;20231;-68
2022/12/21 08:13:00;;;;;;;9.30;5.30;;;;;;;7.81;100.00;100981.06;6083926;28;20240;-67
2022/12/21 08:16:21;;;;;;;10.83;7.60;;;;;;;7.96;100.00;100961.97;6100044;28;20259;-68
2022/12/21 08:19:42;;;;;;;10.23;6.70;;;;;;;8.07;100.00;100964.66;6085860;28;20236;-69
2022/12/21 08:23:03;;;;;;;11.70;6.70;;;;;;;8.19;100.00;100970.94;6099841;28;20322;-68
2022/12/21 08:26:24;;;;;;;12.87;7.23;;;;;;;8.14;100.00;100967.72;6115337;28;20236;-68
2022/12/21 08:29:46;;;;;;;12.40;7.40;;;;;;;8.09;100.00;100975.31;6110370;28;20515;-68
2022/12/21 08:33:09;;;;;;;14.63;8.50;;;;;;;8.07;100.00;100972.72;6096725;28;20244;-68
2022/12/21 08:36:31;;;;;;;18.10;9.47;;;;;;;8.14;100.00;100961.50;6115215;28;20597;-67
2022/12/21 08:39:52;;;;;;;14.57;10.13;;;;;;;8.31;100.00;100970.00;6100286;28;20232;-70
2022/12/21 08:43:13;;;;;;;12.90;8.07;;;;;;;8.15;100.00;100969.47;6092533;28;20246;-69
2022/12/21 08:46:35;;;;;;;11.67;7.93;;;;;;;8.08;100.00;100958.34;6108549;28;20243;-67
2022/12/21 08:49:56;;;;;;;9.07;6.47;;;;;;;8.09;100.00;100960.03;6088460;28;20240;-68
2022/12/21 08:53:17;;;;;;;19.53;8.27;;;;;;;8.26;100.00;100945.31;6090213;28;20240;-69
2022/12/21 08:56:38;;;;;;;11.93;7.03;;;;;;;8.46;100.00;100935.72;6112173;28;20315;-68
2022/12/21 08:59:59;;;;;;;10.43;6.37;;;;;;;8.57;100.00;100933.88;6103245;28;20238;-69
2022/12/21 09:03:22;;;;;;;13.00;6.30;;;;;;;8.73;100.00;100961.25;6084364;28;20243;-68
2022/12/21 09:06:42;;;;;;;7.93;6.13;;;;;;;8.77;98.88;100965.41;6117927;28;20322;-69
2022/12/21 09:10:03;;;;;;;8.00;6.40;;;;;;;8.39;97.98;100972.94;6111876;28;20238;-68
2022/12/21 09:13:24;;;;;;;14.93;7.43;;;;;;;8.22;98.80;100978.72;6110685;28;20813;-68
2022/12/21 09:16:45;;;;;;;12.47;7.53;;;;;;;8.11;100.00;100972.50;6112772;28;20350;-69
2022/12/21 09:20:09;;;;;;;10.53;8.27;;;;;;;8.21;100.00;100973.50;6100204;28;20246;-68
2022/12/21 09:23:29;;;;;;;14.07;7.47;;;;;;;7.82;100.00;100974.72;6105051;28;20231;-69
2022/12/21 09:26:50;;;;;;;13.03;7.13;;;;;;;7.89;100.00;100971.44;6121938;28;20227;-68
2022/12/21 09:30:11;;;;;;;14.87;7.33;;;;;;;7.93;100.00;100966.69;6098628;28;20251;-69
2022/12/21 09:33:33;;;;;;;8.70;6.87;;;;;;;7.88;100.00;100969.75;6103759;28;20227;-69
2022/12/21 09:36:55;;;;;;;10.87;6.80;;;;;;;7.98;100.00;100986.00;6119277;28;20236;-68
2022/12/21 09:40:19;;;;;;;14.23;8.13;;;;;;;7.95;100.00;100987.09;6115462;28;20310;-68
2022/12/21 09:43:50;;;;;;;11.53;6.17;;;;;;;8.14;100.00;100988.34;6096493;28;20235;-69
2022/12/21 09:47:17;;;;;;;7.97;5.60;;;;;;;8.26;100.00;100993.66;6112956;28;20220;-68
2022/12/21 09:50:43;;;;;;;8.40;5.60;;;;;;;8.11;100.00;100991.28;6127029;28;20239;-68
2022/12/21 09:54:12;;;;;;;7.63;6.87;;;;;;;8.12;100.00;100985.78;6104521;28;20235;-68
2022/12/21 09:57:35;;;;;;;11.13;6.27;;;;;;;8.31;100.00;100985.25;6114256;28;20281;-68
2022/12/21 10:01:03;;;;;;;7.00;5.20;;;;;;;8.22;99.50;100988.66;6113695;28;20239;-68
2022/12/21 10:04:38;;;;;;;9.67;6.20;;;;;;;8.42;99.34;100988.84;6115437;28;20235;-68
2022/12/21 10:08:34;;;;;;;5.80;5.07;;;;;;;8.38;99.54;100984.69;6097768;28;20236;-67
2022/12/21 10:12:13;;;;;;;10.47;5.53;;;;;;;8.57;98.90;100976.03;6114391;28;20240;-69
2022/12/21 10:15:44;;;;;;;10.47;7.00;;;;;;;8.64;98.97;100970.03;6119078;28;20240;-68
2022/12/21 10:19:14;;;;;;;10.87;5.47;;;;;;;8.48;98.88;100953.44;6097512;28;20244;-67
2022/12/21 10:22:39;;;;;;;9.67;6.33;;;;;;;8.72;98.17;100946.09;6111819;28;20614;-69
2022/12/21 10:26:03;;;;;;;8.83;4.70;;;;;;;8.71;98.83;100933.66;6114457;28;20231;-68
2022/12/21 10:29:32;;;;;;;8.53;7.10;;;;;;;8.71;97.82;100932.78;6113243;28;20653;-69
2022/12/21 10:32:53;;;;;;;10.90;5.30;;;;;;;8.92;97.19;100924.81;6093319;28;20231;-68
2022/12/21 10:36:17;;;;;;;6.80;4.87;;;;;;;8.97;96.38;100936.06;6112532;28;20260;-68
2022/12/21 10:39:38;;;;;;;11.47;5.27;;;;;;;9.00;96.20;100947.41;6119716;28;20239;-68
2022/12/21 10:43:00;;;;;;;9.90;5.47;;;;;;;8.73;97.84;100952.34;6097240;28;20231;-68
2022/12/21 10:46:29;;;;;;;15.20;7.40;;;;;;;8.58;98.60;100932.91;6111462;28;20245;-69
2022/12/21 10:50:02;;;;;;;7.43;6.07;;;;;;;8.47;98.69;100929.38;6085544;28;20614;-67
2022/12/21 10:53:25;;;;;;;10.03;6.03;;;;;;;8.53;99.58;100918.97;6092514;28;20231;-67
2022/12/21 10:56:50;;;;;;;9.50;5.93;;;;;;;8.55;99.32;100917.03;6109991;28;20398;-69
2022/12/21 11:00:25;;;;;;;11.70;6.87;;;;;;;8.52;99.79;100925.34;6112008;28;20252;-67
2022/12/21 11:04:05;;;;;;;10.43;5.53;;;;;;;8.46;99.50;100922.28;6103638;28;20227;-68
2022/12/21 11:07:29;;;;;;;12.63;8.13;;;;;;;8.56;100.00;100916.06;6105763;28;20231;-68
2022/12/21 11:10:53;;;;;;;16.30;7.63;;;;;;;8.74;99.33;100916.44;6094706;28;20231;-69
2022/12/21 11:14:15;;;;;;;10.20;5.87;;;;;;;8.49;99.51;100911.31;6097700;28;20651;-67
2022/12/21 11:17:36;;;;;;;14.63;10.33;;;;;;;8.45;99.60;100907.16;6097061;28;20275;-68
2022/12/21 11:21:00;;;;;;;13.20;8.87;;;;;;;8.46;99.81;100901.66;6100475;28;20251;-67
2022/12/21 11:24:25;;;;;;;11.65;10.48;;;;;;;8.50;99.57;100899.56;6095755;28;21229;-68
2022/12/21 11:27:48;;;;;;;9.30;7.70;;;;;;;8.52;100.00;100901.16;6106906;28;20696;-68
2022/12/21 11:31:10;;;;;;;13.80;7.43;;;;;;;8.69;98.83;100911.41;6107302;28;20239;-67
2022/12/21 11:34:35;;;;;;;12.63;8.30;;;;;;;8.69;98.64;100903.34;6107823;28;20640;-68
2022/12/21 11:38:03;;;;;;;11.17;8.97;;;;;;;8.79;97.82;100908.84;6107558;28;20236;-68
2022/12/21 11:41:28;;;;;;;9.53;7.10;;;;;;;8.81;97.95;100898.81;6111078;28;20800;-68
2022/12/21 11:44:51;;;;;;;15.93;7.87;;;;;;;9.42;95.28;100889.25;6099423;28;20240;-67
2022/12/21 11:48:23;;;;;;;10.57;7.30;;;;;;;9.38;93.40;100880.59;6096175;28;20263;-67
2022/12/21 11:51:51;;;;;;;10.87;6.77;;;;;;;9.73;92.20;100884.81;6110704;28;20240;-68
2022/12/21 11:55:23;;;;;;;11.77;7.53;;;;;;;9.40;93.32;100893.91;6111314;28;20243;-68
2022/12/21 11:59:09;;;;;;;15.43;8.70;;;;;;;9.17;94.33;100887.75;6089793;28;20239;-68
2022/12/21 12:03:00;;;;;;;14.17;8.93;;;;;;;9.82;92.04;100889.41;6101429;28;20327;-69
2022/12/21 12:06:43;;;;;;;11.47;7.07;;;;;;;9.32;93.09;100902.63;6112816;28;20231;-68
2022/12/21 12:10:27;;;;;;;10.20;6.43;;;;;;;8.79;94.62;100898.09;6099422;28;20259;-66
2022/12/21 12:14:04;;;;;;;9.47;6.07;;;;;;;8.76;95.70;100901.88;6102362;28;20736;-67
2022/12/21 12:17:40;;;;;;;9.70;7.70;;;;;;;8.58;95.95;100895.28;6103608;28;20244;-66
2022/12/21 12:21:34;;;;;;;11.23;7.93;;;;;;;8.53;95.99;100900.16;6110452;28;20590;-67
2022/12/21 12:25:30;;;;;;;11.13;9.00;;;;;;;8.40;95.96;100886.03;6099225;28;20263;-66
2022/12/21 12:29:14;;;;;;;10.00;7.53;;;;;;;8.40;95.72;100883.34;6091665;28;20232;-67
2022/12/21 12:32:54;;;;;;;12.37;8.53;;;;;;;8.52;94.32;100866.25;6107785;28;20235;-68
2022/12/21 12:36:27;;;;;;;8.80;6.63;;;;;;;8.47;94.48;100873.81;6117455;28;20236;-67
2022/12/21 12:39:54;;;;;;;13.20;7.50;;;;;;;8.52;93.90;100870.75;6104690;28;20243;-67
2022/12/21 12:43:26;;;;;;;11.23;7.00;;;;;;;8.42;94.42;100865.28;6099608;28;20238;-68
2022/12/21 12:47:01;;;;;;;11.07;7.50;;;;;;;8.44;95.45;100868.69;6102877;28;20614;-68
2022/12/21 12:50:34;;;;;;;10.23;7.47;;;;;;;8.53;94.53;100872.47;6103626;28;20548;-67
2022/12/21 12:54:02;;;;;;;11.53;8.37;;;;;;;8.51;94.10;100858.31;6103905;28;20908;-67
2022/12/21 12:57:32;;;;;;;11.33;6.97;;;;;;;8.25;94.26;100859.50;6111384;28;20246;-66
2022/12/21 13:01:02;;;;;;;12.00;8.90;;;;;;;8.32;94.87;100867.00;6101761;28;20243;-67
2022/12/21 13:04:55;;;;;;;9.63;6.73;;;;;;;8.27;95.25;100866.50;6106658;28;23318;-67
2022/12/21 13:08:37;;;;;;;9.77;6.13;;;;;;;8.30;95.01;100858.19;6102560;28;20326;-65
2022/12/21 13:12:05;;;;;;;20.17;7.43;;;;;;;8.34;95.41;100850.75;6108880;28;20328;-67
2022/12/21 13:15:35;;;;;;;10.87;7.97;;;;;;;8.19;94.76;100854.59;6113201;28;20236;-66
2022/12/21 13:19:01;;;;;;;18.13;9.37;;;;;;;8.16;95.34;100850.34;6102026;28;20235;-67
2022/12/21 13:22:28;;;;;;;15.77;7.30;;;;;;;8.21;94.05;100858.03;6112016;28;20231;-66
2022/12/21 13:25:57;;;;;;;16.43;8.60;;;;;;;8.11;93.59;100857.91;6092631;28;20238;-67
2022/12/21 13:29:23;;;;;;;12.40;7.10;;;;;;;8.08;93.90;100858.13;6108798;28;20518;-68
2022/12/21 13:32:46;;;;;;;11.17;8.80;;;;;;;8.06;93.44;100860.94;6110798;28;20239;-67
2022/12/21 13:36:11;;;;;;;14.07;8.20;;;;;;;7.99;93.19;100867.78;6106349;28;20236;-66
2022/12/21 13:39:38;;;;;;;12.30;7.63;;;;;;;8.00;93.11;100869.50;6108622;28;20239;-67
2022/12/21 13:43:05;;;;;;;14.97;8.50;;;;;;;8.09;93.22;100852.63;6096222;28;20256;-66
2022/12/21 13:46:26;;;;;;;14.27;8.70;;;;;;;8.19;91.96;100844.72;6117220;28;20256;-66
2022/12/21 13:49:59;;;;;;;20.23;10.93;;;;;;;8.13;92.61;100849.72;6104699;28;20252;-66
2022/12/21 13:53:30;;;;;;;20.97;8.73;;;;;;;8.17;93.22;100862.78;6094597;28;20236;-67
2022/12/21 13:57:04;;;;;;;15.77;7.83;;;;;;;8.09;93.13;100851.81;6116829;28;20270;-67
2022/12/21 14:00:33;;;;;;;16.03;8.27;;;;;;;7.97;93.45;100869.72;6115460;28;20275;-67
2022/12/21 14:03:59;;;;;;;12.67;8.27;;;;;;;7.95;94.57;100870.81;6105190;28;20227;-67
2022/12/21 14:07:46;;;;;;;21.07;10.63;;;;;;;7.92;94.64;100874.59;6106601;28;20232;-66
2022/12/21 14:11:33;;;;;;;16.73;8.10;;;;;;;7.94;93.11;100877.16;6108829;28;20610;-67
2022/12/21 14:15:25;;;;;;;18.60;11.63;;;;;;;7.88;92.40;100877.66;6111557;28;20227;-68
2022/12/21 14:18:52;;;;;;;14.20;9.43;;;;;;;7.87;92.40;100882.16;6110436;28;20231;-68
2022/12/21 14:22:15;;;;;;;16.40;8.77;;;;;;;7.91;91.72;100888.97;6121403;28;20254;-67
2022/12/21 14:25:40;;;;;;;12.13;8.10;;;;;;;7.89;91.34;100882.03;6114589;28;20316;-67
2022/12/21 14:29:11;;;;;;;15.20;9.43;;;;;;;7.89;92.10;100879.34;6098436;28;20327;-67
2022/12/21 14:32:32;;;;;;;20.80;11.23;;;;;;;7.84;92.80;100871.63;6101658;28;20722;-68
2022/12/21 14:36:27;;;;;;;15.60;9.20;;;;;;;7.78;93.44;100868.59;6120500;28;20243;-67
2022/12/21 14:40:28;;;;;;;17.43;10.43;;;;;;;7.80;93.58;100862.13;6102558;28;20275;-68
2022/12/21 14:44:22;;;;;;;12.93;8.27;;;;;;;7.76;92.93;100855.28;6103020;28;20318;-67
2022/12/21 14:47:58;;;;;;;14.63;10.63;;;;;;;7.79;92.97;100860.44;6111264;28;20236;-67
2022/12/21 14:51:48;;;;;;;17.20;9.33;;;;;;;7.90;91.90;100859.59;6105005;28;20237;-68
2022/12/21 14:55:32;;;;;;;15.43;10.07;;;;;;;7.80;92.15;100850.56;6110696;28;20660;-68
2022/12/21 14:58:59;;;;;;;18.73;9.77;;;;;;;7.79;91.91;100855.06;6102456;28;20243;-68
2022/12/21 15:02:34;;;;;;;14.27;9.07;;;;;;;7.84;91.39;100852.03;6106181;28;20559;-68
2022/12/21 15:06:05;;;;;;;17.37;12.90;;;;;;;7.75;92.23;100844.69;6112408;28;20240;-68
2022/12/21 15:09:29;;;;;;;18.30;9.13;;;;;;;7.74;92.09;100838.44;6119281;28;20804;-68
2022/12/21 15:12:51;;;;;;;17.93;9.73;;;;;;;7.70;91.63;100842.34;6100394;28;20330;-67
2022/12/21 15:16:21;;;;;;;13.17;9.07;;;;;;;7.75;92.06;100840.16;6119100;28;20232;-68
2022/12/21 15:19:54;;;;;;;18.37;9.67;;;;;;;7.71;91.90;100836.03;6108384;28;20591;-67
2022/12/21 15:23:23;;;;;;;12.07;9.70;;;;;;;7.69;91.95;100834.41;6107877;28;20235;-67
2022/12/21 15:26:49;;;;;;;14.33;8.53;;;;;;;7.65;91.60;100825.78;6116573;28;20239;-67
2022/12/21 15:30:19;;;;;;;16.87;9.60;;;;;;;7.64;92.02;100820.50;6096577;28;20232;-67
2022/12/21 15:33:42;;;;;;;12.57;9.63;;;;;;;7.57;92.11;100811.25;6109365;28;20239;-68
2022/12/21 15:37:07;;;;;;;10.30;7.87;;;;;;;7.54;93.12;100809.63;6117387;28;20322;-67
2022/12/21 15:40:32;;;;;;;12.23;9.17;;;;;;;7.50;93.77;100808.16;6111046;28;20240;-67
2022/12/21 15:43:59;;;;;;;13.50;9.13;;;;;;;7.51;93.33;100807.19;6101358;28;20263;-67
2022/12/21 15:47:30;;;;;;;13.97;8.50;;;;;;;7.45;94.71;100804.97;6108231;28;20240;-67
2022/12/21 15:50:53;;;;;;;17.73;9.63;;;;;;;7.46;94.41;100805.84;6102656;28;20230;-68
2022/12/21 15:54:18;;;;;;;18.87;10.10;;;;;;;7.37;94.56;100807.41;6108164;28;20693;-67
2022/12/21 15:57:44;;;;;;;16.43;8.27;;;;;;;7.31;95.02;100802.50;6100815;28;20599;-67
2022/12/21 16:01:11;;;;;;;13.03;7.87;;;;;;;7.32;95.88;100800.69;6109616;28;20236;-67
2022/12/21 16:04:33;;;;;;;12.63;7.63;;;;;;;7.25;95.82;100811.03;6103114;28;20235;-67
2022/12/21 16:07:54;;;;;;;11.07;8.20;;;;;;;7.22;96.41;100811.25;6097860;28;20751;-68
2022/12/21 16:11:27;;;;;;;16.47;11.23;;;;;;;7.18;96.21;100809.75;6099176;28;20259;-67